KEFD/EFD METAR and TAF weather

Enter ICAO airport designator
Station Type Date Time Source
KEFD METAR 2019/12/11 16:50 UTC NOAA

KEFD 111650Z 35010KT 10SM FEW020 10/03 A3050


Station Type Date Time Source
KEFD Decoded METAR 2019/12/11 16:50 UTC NOAA

Houston / Ellington, TX, United States (KEFD) 29-36N 095-10W
Dec 11, 2019 - 11:50 AM EST / 2019.12.11 1650 UTC
Wind: from the N (350 degrees) at 12 MPH (10 KT):0
Visibility: 10 mile(s):0
Sky conditions: mostly clear
Temperature: 50 F (10 C)
Dew Point: 37 F (3 C)
Relative Humidity: 61%
Pressure (altimeter): 30.5 in. Hg (1032 hPa)
ob: KEFD 111650Z 35010KT 10SM FEW020 10/03 A3050
cycle: 17

Station Type Date Time Source
KEFD TAF 2019/12/11 12:10 UTC NOAA

TAF KEFD 111200Z 1112/1218 02012KT 9999 OVC014 QNH3035INS
BECMG 1115/1116 04012KT 9999 SCT015 QNH3035INS
BECMG 1117/1118 03012KT 9999 SKC QNH3040INS
BECMG 1123/1124 06006KT 9999 SKC QNH3025INS TX13/1121Z TN06/1114Z

Example: see airport list